sensor_id;sensor_type;location;lat;lon;timestamp;temperature;humidity
25741;DHT22;13592;50.838;4.412;2022-12-28T00:00:41;9.10;99.90
25741;DHT22;13592;50.838;4.412;2022-12-28T00:03:10;9.10;99.90
25741;DHT22;13592;50.838;4.412;2022-12-28T00:08:05;8.90;99.90
25741;DHT22;13592;50.838;4.412;2022-12-28T00:13:50;9.00;99.90
25741;DHT22;13592;50.838;4.412;2022-12-28T00:16:30;9.10;99.90
25741;DHT22;13592;50.838;4.412;2022-12-28T00:21:35;9.10;99.90
25741;DHT22;13592;50.838;4.412;2022-12-28T00:24:04;9.10;99.90
25741;DHT22;13592;50.838;4.412;2022-12-28T00:26:30;9.00;99.90
25741;DHT22;13592;50.838;4.412;2022-12-28T00:29:00;9.00;99.90
25741;DHT22;13592;50.838;4.412;2022-12-28T00:31:32;9.00;99.90
25741;DHT22;13592;50.838;4.412;2022-12-28T00:36:49;9.00;99.90
25741;DHT22;13592;50.838;4.412;2022-12-28T00:39:22;9.10;99.90
25741;DHT22;13592;50.838;4.412;2022-12-28T00:44:17;9.10;99.90
25741;DHT22;13592;50.838;4.412;2022-12-28T00:46:42;9.10;99.90
25741;DHT22;13592;50.838;4.412;2022-12-28T00:49:08;9.10;99.90
25741;DHT22;13592;50.838;4.412;2022-12-28T00:51:34;9.10;99.90
25741;DHT22;13592;50.838;4.412;2022-12-28T00:54:00;9.20;99.90
25741;DHT22;13592;50.838;4.412;2022-12-28T00:56:29;9.30;99.90
25741;DHT22;13592;50.838;4.412;2022-12-28T00:58:59;9.20;99.90
25741;DHT22;13592;50.838;4.412;2022-12-28T01:01:28;9.20;99.90
25741;DHT22;13592;50.838;4.412;2022-12-28T01:03:57;9.20;99.90
25741;DHT22;13592;50.838;4.412;2022-12-28T01:06:23;9.20;99.90
25741;DHT22;13592;50.838;4.412;2022-12-28T01:08:54;9.20;99.90
25741;DHT22;13592;50.838;4.412;2022-12-28T01:11:28;9.20;99.90
25741;DHT22;13592;50.838;4.412;2022-12-28T01:14:04;9.30;99.90
25741;DHT22;13592;50.838;4.412;2022-12-28T01:16:38;9.20;99.90
25741;DHT22;13592;50.838;4.412;2022-12-28T01:19:05;9.20;99.90
25741;DHT22;13592;50.838;4.412;2022-12-28T01:21:33;9.10;99.90
25741;DHT22;13592;50.838;4.412;2022-12-28T01:24:06;9.20;99.90
25741;DHT22;13592;50.838;4.412;2022-12-28T01:26:47;9.30;99.90
25741;DHT22;13592;50.838;4.412;2022-12-28T01:29:21;9.30;99.90
25741;DHT22;13592;50.838;4.412;2022-12-28T01:31:56;9.30;99.90
25741;DHT22;13592;50.838;4.412;2022-12-28T01:37:03;9.40;99.90
25741;DHT22;13592;50.838;4.412;2022-12-28T01:39:39;9.30;99.90
25741;DHT22;13592;50.838;4.412;2022-12-28T01:42:23;9.40;99.90
25741;DHT22;13592;50.838;4.412;2022-12-28T01:47:50;9.40;99.90
25741;DHT22;13592;50.838;4.412;2022-12-28T01:50:31;9.50;99.90
25741;DHT22;13592;50.838;4.412;2022-12-28T01:56:12;9.60;99.90
25741;DHT22;13592;50.838;4.412;2022-12-28T02:03:58;9.70;99.90
25741;DHT22;13592;50.838;4.412;2022-12-28T02:06:40;9.60;99.90
25741;DHT22;13592;50.838;4.412;2022-12-28T02:12:12;9.50;99.90
25741;DHT22;13592;50.838;4.412;2022-12-28T02:17:23;9.40;99.90
25741;DHT22;13592;50.838;4.412;2022-12-28T02:20:05;9.40;99.90
25741;DHT22;13592;50.838;4.412;2022-12-28T02:28:21;9.50;99.90
25741;DHT22;13592;50.838;4.412;2022-12-28T02:36:30;9.60;99.90
25741;DHT22;13592;50.838;4.412;2022-12-28T02:39:16;9.50;99.90
25741;DHT22;13592;50.838;4.412;2022-12-28T02:42:00;9.60;99.90
25741;DHT22;13592;50.838;4.412;2022-12-28T02:44:28;9.50;99.90
25741;DHT22;13592;50.838;4.412;2022-12-28T02:47:26;9.40;99.90
25741;DHT22;13592;50.838;4.412;2022-12-28T03:07:20;9.60;99.90
25741;DHT22;13592;50.838;4.412;2022-12-28T03:16:03;9.80;99.90
25741;DHT22;13592;50.838;4.412;2022-12-28T03:18:35;9.70;99.90
25741;DHT22;13592;50.838;4.412;2022-12-28T03:21:23;9.70;99.90
25741;DHT22;13592;50.838;4.412;2022-12-28T03:24:12;9.70;99.90
25741;DHT22;13592;50.838;4.412;2022-12-28T03:27:04;9.80;99.90
25741;DHT22;13592;50.838;4.412;2022-12-28T03:30:10;9.80;99.90
25741;DHT22;13592;50.838;4.412;2022-12-28T03:32:55;9.80;99.90
25741;DHT22;13592;50.838;4.412;2022-12-28T03:35:22;9.70;99.90
25741;DHT22;13592;50.838;4.412;2022-12-28T03:38:02;9.90;99.90
25741;DHT22;13592;50.838;4.412;2022-12-28T03:40:46;10.00;99.90
25741;DHT22;13592;50.838;4.412;2022-12-28T03:43:26;9.90;99.90
25741;DHT22;13592;50.838;4.412;2022-12-28T03:48:36;9.90;99.90
25741;DHT22;13592;50.838;4.412;2022-12-28T03:51:12;9.80;99.90
25741;DHT22;13592;50.838;4.412;2022-12-28T03:53:42;10.00;99.90
25741;DHT22;13592;50.838;4.412;2022-12-28T03:56:14;9.90;99.90
25741;DHT22;13592;50.838;4.412;2022-12-28T03:58:39;9.80;99.90
25741;DHT22;13592;50.838;4.412;2022-12-28T04:01:10;9.80;99.90
25741;DHT22;13592;50.838;4.412;2022-12-28T04:03:37;9.80;99.90
25741;DHT22;13592;50.838;4.412;2022-12-28T04:06:03;9.80;99.90
25741;DHT22;13592;50.838;4.412;2022-12-28T04:08:30;9.80;99.90
25741;DHT22;13592;50.838;4.412;2022-12-28T04:10:59;9.70;99.90
25741;DHT22;13592;50.838;4.412;2022-12-28T04:13:31;9.80;99.90
25741;DHT22;13592;50.838;4.412;2022-12-28T04:18:46;9.90;99.90
25741;DHT22;13592;50.838;4.412;2022-12-28T04:21:20;9.90;99.90
25741;DHT22;13592;50.838;4.412;2022-12-28T04:23:45;10.00;99.90
25741;DHT22;13592;50.838;4.412;2022-12-28T04:26:15;10.00;99.90
25741;DHT22;13592;50.838;4.412;2022-12-28T04:28:42;9.90;99.90
25741;DHT22;13592;50.838;4.412;2022-12-28T04:31:11;9.90;99.90
25741;DHT22;13592;50.838;4.412;2022-12-28T04:33:39;9.90;99.90
25741;DHT22;13592;50.838;4.412;2022-12-28T04:36:12;9.90;99.90
25741;DHT22;13592;50.838;4.412;2022-12-28T04:38:39;9.80;99.90
25741;DHT22;13592;50.838;4.412;2022-12-28T04:46:35;9.80;99.90
25741;DHT22;13592;50.838;4.412;2022-12-28T04:49:06;9.70;99.90
25741;DHT22;13592;50.838;4.412;2022-12-28T04:51:44;9.70;99.90
25741;DHT22;13592;50.838;4.412;2022-12-28T04:59:46;9.70;99.90
25741;DHT22;13592;50.838;4.412;2022-12-28T05:02:13;9.60;99.90
25741;DHT22;13592;50.838;4.412;2022-12-28T05:04:41;9.70;99.90
25741;DHT22;13592;50.838;4.412;2022-12-28T05:07:08;9.80;99.90
25741;DHT22;13592;50.838;4.412;2022-12-28T05:09:44;9.80;99.90
25741;DHT22;13592;50.838;4.412;2022-12-28T05:12:13;9.80;99.90
25741;DHT22;13592;50.838;4.412;2022-12-28T05:17:19;9.80;99.90
25741;DHT22;13592;50.838;4.412;2022-12-28T05:19:55;9.90;99.90
25741;DHT22;13592;50.838;4.412;2022-12-28T05:22:23;9.90;99.90
25741;DHT22;13592;50.838;4.412;2022-12-28T05:24:49;9.90;99.90
25741;DHT22;13592;50.838;4.412;2022-12-28T05:30:11;10.00;99.90
25741;DHT22;13592;50.838;4.412;2022-12-28T05:35:43;9.80;99.90
25741;DHT22;13592;50.838;4.412;2022-12-28T05:43:47;9.90;99.90
25741;DHT22;13592;50.838;4.412;2022-12-28T05:46:27;10.00;99.90
25741;DHT22;13592;50.838;4.412;2022-12-28T05:48:59;10.10;99.90
25741;DHT22;13592;50.838;4.412;2022-12-28T05:51:37;10.10;99.90
25741;DHT22;13592;50.838;4.412;2022-12-28T05:54:15;10.00;99.90
25741;DHT22;13592;50.838;4.412;2022-12-28T05:56:44;10.10;99.90
25741;DHT22;13592;50.838;4.412;2022-12-28T06:02:17;10.20;99.90
25741;DHT22;13592;50.838;4.412;2022-12-28T06:04:55;10.30;99.90
25741;DHT22;13592;50.838;4.412;2022-12-28T06:10:07;10.10;99.90
25741;DHT22;13592;50.838;4.412;2022-12-28T06:15:26;10.10;99.90
25741;DHT22;13592;50.838;4.412;2022-12-28T06:17:52;10.20;99.90
25741;DHT22;13592;50.838;4.412;2022-12-28T06:25:46;10.30;99.90
25741;DHT22;13592;50.838;4.412;2022-12-28T06:30:44;10.30;99.90
25741;DHT22;13592;50.838;4.412;2022-12-28T06:33:24;10.30;99.90
25741;DHT22;13592;50.838;4.412;2022-12-28T06:38:30;10.50;99.90
25741;DHT22;13592;50.838;4.412;2022-12-28T06:41:04;10.30;99.90
25741;DHT22;13592;50.838;4.412;2022-12-28T06:43:34;10.40;99.90
25741;DHT22;13592;50.838;4.412;2022-12-28T06:48:56;10.50;99.90
25741;DHT22;13592;50.838;4.412;2022-12-28T06:54:28;10.50;99.90
25741;DHT22;13592;50.838;4.412;2022-12-28T06:59:32;10.60;99.90
25741;DHT22;13592;50.838;4.412;2022-12-28T07:02:15;10.60;99.90
25741;DHT22;13592;50.838;4.412;2022-12-28T07:04:45;10.60;99.90
25741;DHT22;13592;50.838;4.412;2022-12-28T07:07:12;10.50;99.90
25741;DHT22;13592;50.838;4.412;2022-12-28T07:09:49;10.60;99.90
25741;DHT22;13592;50.838;4.412;2022-12-28T07:12:15;10.60;99.90
25741;DHT22;13592;50.838;4.412;2022-12-28T07:17:52;10.70;99.90
25741;DHT22;13592;50.838;4.412;2022-12-28T07:23:23;10.70;99.90
25741;DHT22;13592;50.838;4.412;2022-12-28T07:26:08;10.70;99.90
25741;DHT22;13592;50.838;4.412;2022-12-28T07:28:45;10.70;99.90
25741;DHT22;13592;50.838;4.412;2022-12-28T07:31:31;10.70;99.90
25741;DHT22;13592;50.838;4.412;2022-12-28T07:34:10;10.60;99.90
25741;DHT22;13592;50.838;4.412;2022-12-28T07:36:51;10.50;99.90
25741;DHT22;13592;50.838;4.412;2022-12-28T07:42:33;10.60;99.90
25741;DHT22;13592;50.838;4.412;2022-12-28T07:47:38;10.60;99.90
25741;DHT22;13592;50.838;4.412;2022-12-28T07:50:12;10.60;99.90
25741;DHT22;13592;50.838;4.412;2022-12-28T07:52:38;10.50;99.90
25741;DHT22;13592;50.838;4.412;2022-12-28T07:57:57;10.40;99.90
25741;DHT22;13592;50.838;4.412;2022-12-28T08:02:54;10.40;99.90
25741;DHT22;13592;50.838;4.412;2022-12-28T08:05:26;10.40;99.90
25741;DHT22;13592;50.838;4.412;2022-12-28T08:10:48;10.40;99.90
25741;DHT22;13592;50.838;4.412;2022-12-28T08:13:17;10.40;99.90
25741;DHT22;13592;50.838;4.412;2022-12-28T08:18:34;10.40;99.90
25741;DHT22;13592;50.838;4.412;2022-12-28T08:24:11;10.30;99.90
25741;DHT22;13592;50.838;4.412;2022-12-28T08:26:40;10.20;99.90
25741;DHT22;13592;50.838;4.412;2022-12-28T08:29:17;10.20;99.90
25741;DHT22;13592;50.838;4.412;2022-12-28T08:31:45;10.20;99.90
25741;DHT22;13592;50.838;4.412;2022-12-28T08:34:19;10.20;99.90
25741;DHT22;13592;50.838;4.412;2022-12-28T08:36:58;10.10;99.90
25741;DHT22;13592;50.838;4.412;2022-12-28T08:39:23;10.20;99.90
25741;DHT22;13592;50.838;4.412;2022-12-28T08:41:50;10.30;99.90
25741;DHT22;13592;50.838;4.412;2022-12-28T08:44:15;10.30;99.90
25741;DHT22;13592;50.838;4.412;2022-12-28T08:46:41;10.30;99.90
25741;DHT22;13592;50.838;4.412;2022-12-28T08:49:09;10.20;99.90
25741;DHT22;13592;50.838;4.412;2022-12-28T08:51:44;10.30;99.90
25741;DHT22;13592;50.838;4.412;2022-12-28T08:54:10;10.30;99.90
25741;DHT22;13592;50.838;4.412;2022-12-28T08:56:38;10.20;99.90
25741;DHT22;13592;50.838;4.412;2022-12-28T08:59:06;10.30;99.90
25741;DHT22;13592;50.838;4.412;2022-12-28T09:01:34;10.30;99.90
25741;DHT22;13592;50.838;4.412;2022-12-28T09:06:52;10.30;99.90
25741;DHT22;13592;50.838;4.412;2022-12-28T09:09:18;10.40;99.90
25741;DHT22;13592;50.838;4.412;2022-12-28T09:11:52;10.40;99.90
25741;DHT22;13592;50.838;4.412;2022-12-28T09:14:17;10.40;99.90
25741;DHT22;13592;50.838;4.412;2022-12-28T09:16:43;10.40;99.90
25741;DHT22;13592;50.838;4.412;2022-12-28T09:19:12;10.50;99.90
25741;DHT22;13592;50.838;4.412;2022-12-28T09:21:41;10.50;99.90
25741;DHT22;13592;50.838;4.412;2022-12-28T09:24:08;10.40;99.90
25741;DHT22;13592;50.838;4.412;2022-12-28T09:26:35;10.30;99.90
25741;DHT22;13592;50.838;4.412;2022-12-28T09:29:05;10.30;99.90
25741;DHT22;13592;50.838;4.412;2022-12-28T09:31:33;10.30;99.90
25741;DHT22;13592;50.838;4.412;2022-12-28T09:34:03;10.30;99.90
25741;DHT22;13592;50.838;4.412;2022-12-28T09:36:30;10.30;99.90
25741;DHT22;13592;50.838;4.412;2022-12-28T09:38:56;10.30;99.90
25741;DHT22;13592;50.838;4.412;2022-12-28T09:41:38;10.30;99.90
25741;DHT22;13592;50.838;4.412;2022-12-28T09:44:16;10.40;99.90
25741;DHT22;13592;50.838;4.412;2022-12-28T09:49:35;10.30;99.90
25741;DHT22;13592;50.838;4.412;2022-12-28T09:52:09;10.30;99.90
25741;DHT22;13592;50.838;4.412;2022-12-28T09:54:46;10.20;99.90
25741;DHT22;13592;50.838;4.412;2022-12-28T09:57:13;10.40;99.90
25741;DHT22;13592;50.838;4.412;2022-12-28T09:59:39;10.30;99.90
25741;DHT22;13592;50.838;4.412;2022-12-28T10:02:08;10.40;99.90
25741;DHT22;13592;50.838;4.412;2022-12-28T10:05:17;10.30;99.90
25741;DHT22;13592;50.838;4.412;2022-12-28T10:10:26;10.50;99.90
25741;DHT22;13592;50.838;4.412;2022-12-28T10:12:53;10.40;99.90
25741;DHT22;13592;50.838;4.412;2022-12-28T10:15:19;10.40;99.90
25741;DHT22;13592;50.838;4.412;2022-12-28T10:20:19;10.40;99.90
25741;DHT22;13592;50.838;4.412;2022-12-28T10:25:35;10.40;99.90
25741;DHT22;13592;50.838;4.412;2022-12-28T10:28:04;10.40;99.90
25741;DHT22;13592;50.838;4.412;2022-12-28T10:33:07;10.40;99.90
25741;DHT22;13592;50.838;4.412;2022-12-28T10:35:41;10.50;99.90
25741;DHT22;13592;50.838;4.412;2022-12-28T10:41:04;10.30;99.90
25741;DHT22;13592;50.838;4.412;2022-12-28T10:43:35;10.40;99.90
25741;DHT22;13592;50.838;4.412;2022-12-28T10:46:11;10.50;99.90
25741;DHT22;13592;50.838;4.412;2022-12-28T10:48:48;10.40;99.90
25741;DHT22;13592;50.838;4.412;2022-12-28T10:53:58;10.50;99.90
25741;DHT22;13592;50.838;4.412;2022-12-28T10:56:31;10.60;99.90
25741;DHT22;13592;50.838;4.412;2022-12-28T11:07:37;10.60;99.90
25741;DHT22;13592;50.838;4.412;2022-12-28T11:10:23;10.60;99.90
25741;DHT22;13592;50.838;4.412;2022-12-28T11:13:14;10.60;99.90
25741;DHT22;13592;50.838;4.412;2022-12-28T11:15:48;10.60;99.90
25741;DHT22;13592;50.838;4.412;2022-12-28T11:18:36;10.70;99.90
25741;DHT22;13592;50.838;4.412;2022-12-28T11:21:07;10.60;99.90
25741;DHT22;13592;50.838;4.412;2022-12-28T11:26:24;10.70;99.90
25741;DHT22;13592;50.838;4.412;2022-12-28T11:28:54;10.80;99.90
25741;DHT22;13592;50.838;4.412;2022-12-28T11:31:33;10.80;99.90
25741;DHT22;13592;50.838;4.412;2022-12-28T11:34:05;10.80;99.90
25741;DHT22;13592;50.838;4.412;2022-12-28T11:45:15;10.90;99.90
25741;DHT22;13592;50.838;4.412;2022-12-28T11:58:46;10.90;99.90
25741;DHT22;13592;50.838;4.412;2022-12-28T12:11:48;11.10;99.90
25741;DHT22;13592;50.838;4.412;2022-12-28T12:14:25;11.10;99.90
25741;DHT22;13592;50.838;4.412;2022-12-28T12:20:02;11.10;99.90
25741;DHT22;13592;50.838;4.412;2022-12-28T12:22:34;11.20;99.90
25741;DHT22;13592;50.838;4.412;2022-12-28T12:30:32;11.30;99.90
25741;DHT22;13592;50.838;4.412;2022-12-28T12:35:28;11.20;99.90
25741;DHT22;13592;50.838;4.412;2022-12-28T12:46:36;11.10;99.90
25741;DHT22;13592;50.838;4.412;2022-12-28T12:49:28;11.20;99.90
25741;DHT22;13592;50.838;4.412;2022-12-28T13:03:26;11.20;99.90
25741;DHT22;13592;50.838;4.412;2022-12-28T13:05:56;11.30;99.90
25741;DHT22;13592;50.838;4.412;2022-12-28T13:08:27;11.10;99.90
25741;DHT22;13592;50.838;4.412;2022-12-28T13:10:55;11.10;99.90
25741;DHT22;13592;50.838;4.412;2022-12-28T13:13:38;11.20;99.90
25741;DHT22;13592;50.838;4.412;2022-12-28T13:16:16;11.30;99.90
25741;DHT22;13592;50.838;4.412;2022-12-28T13:21:25;11.40;99.90
25741;DHT22;13592;50.838;4.412;2022-12-28T13:23:51;11.30;99.90
25741;DHT22;13592;50.838;4.412;2022-12-28T13:26:19;11.40;99.90
25741;DHT22;13592;50.838;4.412;2022-12-28T13:29:07;11.50;99.90
25741;DHT22;13592;50.838;4.412;2022-12-28T13:34:13;11.70;99.90
25741;DHT22;13592;50.838;4.412;2022-12-28T13:39:34;11.80;99.90
25741;DHT22;13592;50.838;4.412;2022-12-28T13:44:53;11.80;99.90
25741;DHT22;13592;50.838;4.412;2022-12-28T13:47:27;11.80;99.90
25741;DHT22;13592;50.838;4.412;2022-12-28T13:49:57;11.90;99.90
25741;DHT22;13592;50.838;4.412;2022-12-28T13:52:27;11.90;99.90
25741;DHT22;13592;50.838;4.412;2022-12-28T13:54:56;11.80;99.90
25741;DHT22;13592;50.838;4.412;2022-12-28T13:57:23;11.80;99.90
25741;DHT22;13592;50.838;4.412;2022-12-28T13:59:53;11.80;99.90
25741;DHT22;13592;50.838;4.412;2022-12-28T14:02:20;11.90;99.90
25741;DHT22;13592;50.838;4.412;2022-12-28T14:07:16;11.70;99.90
25741;DHT22;13592;50.838;4.412;2022-12-28T14:09:49;11.90;99.90
25741;DHT22;13592;50.838;4.412;2022-12-28T14:12:18;11.90;99.90
25741;DHT22;13592;50.838;4.412;2022-12-28T14:17:36;11.80;99.90
25741;DHT22;13592;50.838;4.412;2022-12-28T14:20:10;11.80;99.90
25741;DHT22;13592;50.838;4.412;2022-12-28T14:22:37;11.70;99.90
25741;DHT22;13592;50.838;4.412;2022-12-28T14:25:12;11.70;99.90
25741;DHT22;13592;50.838;4.412;2022-12-28T14:27:57;11.60;99.90
25741;DHT22;13592;50.838;4.412;2022-12-28T14:30:58;11.60;99.90
25741;DHT22;13592;50.838;4.412;2022-12-28T14:33:24;11.60;99.90
25741;DHT22;13592;50.838;4.412;2022-12-28T14:35:59;11.70;99.90
25741;DHT22;13592;50.838;4.412;2022-12-28T14:41:01;11.60;99.90
25741;DHT22;13592;50.838;4.412;2022-12-28T14:43:33;11.60;99.90
25741;DHT22;13592;50.838;4.412;2022-12-28T14:48:48;11.50;99.90
25741;DHT22;13592;50.838;4.412;2022-12-28T14:51:25;11.50;99.90
25741;DHT22;13592;50.838;4.412;2022-12-28T14:54:25;11.60;99.90
25741;DHT22;13592;50.838;4.412;2022-12-28T14:57:04;11.70;99.90
25741;DHT22;13592;50.838;4.412;2022-12-28T15:02:37;11.70;99.90
25741;DHT22;13592;50.838;4.412;2022-12-28T15:10:33;11.50;99.90
25741;DHT22;13592;50.838;4.412;2022-12-28T15:13:00;11.60;99.90
25741;DHT22;13592;50.838;4.412;2022-12-28T15:20:34;11.60;99.90
25741;DHT22;13592;50.838;4.412;2022-12-28T15:23:05;11.50;99.90
25741;DHT22;13592;50.838;4.412;2022-12-28T15:25:42;11.50;99.90
25741;DHT22;13592;50.838;4.412;2022-12-28T15:28:09;11.30;99.90
25741;DHT22;13592;50.838;4.412;2022-12-28T15:30:40;11.40;99.90
25741;DHT22;13592;50.838;4.412;2022-12-28T15:35:46;11.40;99.90
25741;DHT22;13592;50.838;4.412;2022-12-28T15:38:18;11.40;99.90
25741;DHT22;13592;50.838;4.412;2022-12-28T15:40:46;11.40;99.90
25741;DHT22;13592;50.838;4.412;2022-12-28T15:43:15;11.40;99.90
25741;DHT22;13592;50.838;4.412;2022-12-28T15:48:09;11.30;99.90
25741;DHT22;13592;50.838;4.412;2022-12-28T15:53:04;11.10;99.90
25741;DHT22;13592;50.838;4.412;2022-12-28T15:55:31;11.20;99.90
25741;DHT22;13592;50.838;4.412;2022-12-28T15:57:59;11.20;99.90
25741;DHT22;13592;50.838;4.412;2022-12-28T16:00:26;11.20;99.90
25741;DHT22;13592;50.838;4.412;2022-12-28T16:02:53;11.20;99.90
25741;DHT22;13592;50.838;4.412;2022-12-28T16:05:28;11.10;99.90
25741;DHT22;13592;50.838;4.412;2022-12-28T16:08:00;11.30;99.90
25741;DHT22;13592;50.838;4.412;2022-12-28T16:10:28;11.30;99.90
25741;DHT22;13592;50.838;4.412;2022-12-28T16:13:02;11.20;99.90
25741;DHT22;13592;50.838;4.412;2022-12-28T16:15:42;11.20;99.90
25741;DHT22;13592;50.838;4.412;2022-12-28T16:18:12;11.10;99.90
25741;DHT22;13592;50.838;4.412;2022-12-28T16:23:19;11.10;99.90
25741;DHT22;13592;50.838;4.412;2022-12-28T16:25:54;11.00;99.90
25741;DHT22;13592;50.838;4.412;2022-12-28T16:28:21;11.10;99.90
25741;DHT22;13592;50.838;4.412;2022-12-28T16:30:48;11.00;99.90
25741;DHT22;13592;50.838;4.412;2022-12-28T16:33:16;11.00;99.90
25741;DHT22;13592;50.838;4.412;2022-12-28T16:35:50;11.00;99.90
25741;DHT22;13592;50.838;4.412;2022-12-28T16:38:16;11.00;99.90
25741;DHT22;13592;50.838;4.412;2022-12-28T16:40:45;10.80;99.90
25741;DHT22;13592;50.838;4.412;2022-12-28T16:43:13;10.90;99.90
25741;DHT22;13592;50.838;4.412;2022-12-28T16:45:47;10.80;99.90
25741;DHT22;13592;50.838;4.412;2022-12-28T16:48:19;10.80;99.90
25741;DHT22;13592;50.838;4.412;2022-12-28T16:50:49;10.80;99.90
25741;DHT22;13592;50.838;4.412;2022-12-28T16:55:51;10.80;99.90
25741;DHT22;13592;50.838;4.412;2022-12-28T16:58:18;10.70;99.90
25741;DHT22;13592;50.838;4.412;2022-12-28T17:00:45;10.80;99.90
25741;DHT22;13592;50.838;4.412;2022-12-28T17:03:13;10.70;99.90
25741;DHT22;13592;50.838;4.412;2022-12-28T17:05:40;10.60;99.90
25741;DHT22;13592;50.838;4.412;2022-12-28T17:08:06;10.60;99.90
25741;DHT22;13592;50.838;4.412;2022-12-28T17:10:32;10.60;99.90
25741;DHT22;13592;50.838;4.412;2022-12-28T17:12:58;10.70;99.90
25741;DHT22;13592;50.838;4.412;2022-12-28T17:15:27;10.60;99.90
25741;DHT22;13592;50.838;4.412;2022-12-28T17:20:22;10.60;99.90
25741;DHT22;13592;50.838;4.412;2022-12-28T17:22:50;10.60;99.90
25741;DHT22;13592;50.838;4.412;2022-12-28T17:25:18;10.60;99.90
25741;DHT22;13592;50.838;4.412;2022-12-28T17:27:50;10.60;99.90
25741;DHT22;13592;50.838;4.412;2022-12-28T17:30:20;10.60;99.90
25741;DHT22;13592;50.838;4.412;2022-12-28T17:32:50;10.60;99.90
25741;DHT22;13592;50.838;4.412;2022-12-28T17:35:22;10.70;99.90
25741;DHT22;13592;50.838;4.412;2022-12-28T17:37:51;10.70;99.90
25741;DHT22;13592;50.838;4.412;2022-12-28T17:40:22;10.60;99.90
25741;DHT22;13592;50.838;4.412;2022-12-28T17:42:48;10.60;99.90
25741;DHT22;13592;50.838;4.412;2022-12-28T17:45:20;10.60;99.90
25741;DHT22;13592;50.838;4.412;2022-12-28T17:47:48;10.60;99.90
25741;DHT22;13592;50.838;4.412;2022-12-28T17:50:14;10.60;99.90
25741;DHT22;13592;50.838;4.412;2022-12-28T17:52:42;10.60;99.90
25741;DHT22;13592;50.838;4.412;2022-12-28T17:55:08;10.70;99.90
25741;DHT22;13592;50.838;4.412;2022-12-28T17:57:37;10.70;99.90
25741;DHT22;13592;50.838;4.412;2022-12-28T18:00:03;10.80;99.90
25741;DHT22;13592;50.838;4.412;2022-12-28T18:02:31;10.80;99.90
25741;DHT22;13592;50.838;4.412;2022-12-28T18:04:57;10.80;99.90
25741;DHT22;13592;50.838;4.412;2022-12-28T18:07:23;10.80;99.90
25741;DHT22;13592;50.838;4.412;2022-12-28T18:09:52;10.70;99.90
25741;DHT22;13592;50.838;4.412;2022-12-28T18:12:19;10.70;99.90
25741;DHT22;13592;50.838;4.412;2022-12-28T18:14:44;10.70;99.90
25741;DHT22;13592;50.838;4.412;2022-12-28T18:17:12;10.80;99.90
25741;DHT22;13592;50.838;4.412;2022-12-28T18:19:45;10.70;99.90
25741;DHT22;13592;50.838;4.412;2022-12-28T18:24:44;10.90;99.90
25741;DHT22;13592;50.838;4.412;2022-12-28T18:27:10;10.90;99.90
25741;DHT22;13592;50.838;4.412;2022-12-28T18:29:44;11.00;99.90
25741;DHT22;13592;50.838;4.412;2022-12-28T18:32:12;11.00;99.90
25741;DHT22;13592;50.838;4.412;2022-12-28T18:34:38;11.00;99.90
25741;DHT22;13592;50.838;4.412;2022-12-28T18:37:06;11.00;99.90
25741;DHT22;13592;50.838;4.412;2022-12-28T18:39:32;11.00;99.90
25741;DHT22;13592;50.838;4.412;2022-12-28T18:41:59;11.00;99.90
25741;DHT22;13592;50.838;4.412;2022-12-28T18:44:44;11.10;99.90
25741;DHT22;13592;50.838;4.412;2022-12-28T18:47:11;11.10;99.90
25741;DHT22;13592;50.838;4.412;2022-12-28T18:49:38;11.10;99.90
25741;DHT22;13592;50.838;4.412;2022-12-28T18:52:05;11.10;99.90
25741;DHT22;13592;50.838;4.412;2022-12-28T18:54:34;11.10;99.90
25741;DHT22;13592;50.838;4.412;2022-12-28T18:57:03;11.10;99.90
25741;DHT22;13592;50.838;4.412;2022-12-28T18:59:31;11.10;99.90
25741;DHT22;13592;50.838;4.412;2022-12-28T19:02:05;11.20;99.90
25741;DHT22;13592;50.838;4.412;2022-12-28T19:04:34;11.30;99.90
25741;DHT22;13592;50.838;4.412;2022-12-28T19:07:01;11.40;99.90
25741;DHT22;13592;50.838;4.412;2022-12-28T19:09:30;11.30;99.90
25741;DHT22;13592;50.838;4.412;2022-12-28T19:11:59;11.50;99.90
25741;DHT22;13592;50.838;4.412;2022-12-28T19:14:26;11.50;99.90
25741;DHT22;13592;50.838;4.412;2022-12-28T19:19:20;11.40;99.90
25741;DHT22;13592;50.838;4.412;2022-12-28T19:21:46;11.40;99.90
25741;DHT22;13592;50.838;4.412;2022-12-28T19:24:19;11.40;99.90
25741;DHT22;13592;50.838;4.412;2022-12-28T19:26:50;11.40;99.90
25741;DHT22;13592;50.838;4.412;2022-12-28T19:29:36;11.40;99.90
25741;DHT22;13592;50.838;4.412;2022-12-28T19:32:05;11.40;99.90
25741;DHT22;13592;50.838;4.412;2022-12-28T19:34:41;11.40;99.90
25741;DHT22;13592;50.838;4.412;2022-12-28T19:39:41;11.40;99.90
25741;DHT22;13592;50.838;4.412;2022-12-28T19:42:06;11.50;99.90
25741;DHT22;13592;50.838;4.412;2022-12-28T19:44:33;11.50;99.90
25741;DHT22;13592;50.838;4.412;2022-12-28T19:47:03;11.70;99.90
25741;DHT22;13592;50.838;4.412;2022-12-28T19:49:48;11.60;99.90
25741;DHT22;13592;50.838;4.412;2022-12-28T19:52:14;11.60;99.90
25741;DHT22;13592;50.838;4.412;2022-12-28T19:54:43;11.60;99.90
25741;DHT22;13592;50.838;4.412;2022-12-28T19:57:09;11.60;99.90
25741;DHT22;13592;50.838;4.412;2022-12-28T19:59:42;11.70;99.90
25741;DHT22;13592;50.838;4.412;2022-12-28T20:04:54;11.70;99.90
25741;DHT22;13592;50.838;4.412;2022-12-28T20:07:19;11.80;99.90
25741;DHT22;13592;50.838;4.412;2022-12-28T20:09:57;11.90;99.90
25741;DHT22;13592;50.838;4.412;2022-12-28T20:12:26;11.90;99.90
25741;DHT22;13592;50.838;4.412;2022-12-28T20:15:01;11.90;99.90
25741;DHT22;13592;50.838;4.412;2022-12-28T20:17:52;12.00;99.90
25741;DHT22;13592;50.838;4.412;2022-12-28T20:22:57;12.20;99.90
25741;DHT22;13592;50.838;4.412;2022-12-28T20:25:28;12.20;99.90
25741;DHT22;13592;50.838;4.412;2022-12-28T20:27:58;12.10;99.90
25741;DHT22;13592;50.838;4.412;2022-12-28T20:30:25;12.10;99.90
25741;DHT22;13592;50.838;4.412;2022-12-28T20:32:51;12.10;99.90
25741;DHT22;13592;50.838;4.412;2022-12-28T20:35:21;12.10;99.90
25741;DHT22;13592;50.838;4.412;2022-12-28T20:37:49;12.10;99.90
25741;DHT22;13592;50.838;4.412;2022-12-28T20:40:16;12.10;99.90
25741;DHT22;13592;50.838;4.412;2022-12-28T20:42:45;12.10;99.90
25741;DHT22;13592;50.838;4.412;2022-12-28T20:45:44;12.10;99.90
25741;DHT22;13592;50.838;4.412;2022-12-28T20:48:15;12.00;99.90
25741;DHT22;13592;50.838;4.412;2022-12-28T20:50:59;12.10;99.90
25741;DHT22;13592;50.838;4.412;2022-12-28T20:55:53;12.20;99.90
25741;DHT22;13592;50.838;4.412;2022-12-28T20:58:29;12.20;99.90
25741;DHT22;13592;50.838;4.412;2022-12-28T21:01:08;12.20;99.90
25741;DHT22;13592;50.838;4.412;2022-12-28T21:03:38;12.20;99.90
25741;DHT22;13592;50.838;4.412;2022-12-28T21:06:04;12.30;99.90
25741;DHT22;13592;50.838;4.412;2022-12-28T21:08:35;12.30;99.90
25741;DHT22;13592;50.838;4.412;2022-12-28T21:11:03;12.40;99.90
25741;DHT22;13592;50.838;4.412;2022-12-28T21:13:31;12.30;99.90